Cemaes Bay, United Kingdom
Current Conditions -  °F | °C
As of 9:50 PM on Monday 20 Oct 2014 (Local Time) from EGOV Reporting Station
Light Rain Light Rain  
Wind Chill: 57°   Ceiling: 9000
Heat Index: 57°   Visibility: 6mi
Dew Point: 54°   Wind: 32mph
Humidity: 88%   Direction: 200°SSW
Pressure: 29.65"   Gusts: NA
Location:  53.41°N, 4.46°W
Report Text: EGOV 202050Z 20028KT 9999 -RA SCT017 BKN090 14/12 Q1004 WHT TEMPO 5000 RA SCT012 GRN
Loading
Personal Weather Stations






























Interactive Weather Map
Tropical Storm Tracking
New forecast layout! Learn more

10-Day Weather Forecast

Advertisements
Track Severe Weather on mobile